createdAt,value
2023-04-25T00:00:18.736Z,101237.00
2023-04-25T00:02:45.500Z,101241.00
2023-04-25T00:05:13.721Z,101241.00
2023-04-25T00:07:40.577Z,101248.00
2023-04-25T00:10:08.347Z,101241.00
2023-04-25T00:12:34.982Z,101252.00
2023-04-25T00:15:01.848Z,101242.00
2023-04-25T00:17:29.313Z,101247.00
2023-04-25T00:19:56.985Z,101251.00
2023-04-25T00:22:23.655Z,101248.00
2023-04-25T00:24:50.459Z,101258.00
2023-04-25T00:27:17.237Z,101259.00
2023-04-25T00:29:43.930Z,101259.00
2023-04-25T00:32:10.987Z,101266.00
2023-04-25T00:34:37.702Z,101268.00
2023-04-25T00:37:04.493Z,101260.00
2023-04-25T00:39:31.179Z,101264.00
2023-04-25T00:41:58.783Z,101265.00
2023-04-25T00:44:26.098Z,101269.00
2023-04-25T00:46:53.597Z,101267.00
2023-04-25T00:49:20.210Z,101261.00
2023-04-25T00:51:47.133Z,101266.00
2023-04-25T00:54:15.127Z,101274.00
2023-04-25T00:56:42.659Z,101279.00
2023-04-25T00:59:11.220Z,101273.00
2023-04-25T01:01:38.829Z,101278.00
2023-04-25T01:04:05.856Z,101277.00
2023-04-25T01:06:33.038Z,101277.00
2023-04-25T01:09:00.607Z,101270.00
2023-04-25T01:11:27.451Z,101274.00
2023-04-25T01:13:54.156Z,101275.00
2023-04-25T01:16:21.414Z,101280.00
2023-04-25T01:18:49.116Z,101283.00
2023-04-25T01:21:15.916Z,101293.00
2023-04-25T01:23:43.700Z,101291.00
2023-04-25T01:26:11.759Z,101292.00
2023-04-25T01:28:42.358Z,101291.00
2023-04-25T01:31:09.911Z,101298.00
2023-04-25T01:33:36.712Z,101290.00
2023-04-25T01:36:03.740Z,101283.00
2023-04-25T01:38:30.775Z,101287.00
2023-04-25T01:40:57.739Z,101292.00
2023-04-25T01:43:24.544Z,101297.00
2023-04-25T01:45:52.633Z,101295.00
2023-04-25T01:48:19.517Z,101292.00
2023-04-25T01:50:47.617Z,101291.00
2023-04-25T01:53:15.771Z,101290.00
2023-04-25T01:55:42.477Z,101293.00
2023-04-25T01:58:10.448Z,101288.00
2023-04-25T02:00:41.809Z,101296.00
2023-04-25T02:03:09.771Z,101296.00
2023-04-25T02:05:41.357Z,101296.00
2023-04-25T02:08:09.638Z,101299.00
2023-04-25T02:10:36.685Z,101300.00
2023-04-25T02:13:03.803Z,101299.00
2023-04-25T02:15:30.716Z,101305.00
2023-04-25T02:17:57.824Z,101304.00
2023-04-25T02:20:26.026Z,101302.00
2023-04-25T02:22:53.013Z,101300.00
2023-04-25T02:25:22.101Z,101300.00
2023-04-25T02:27:49.536Z,101305.00
2023-04-25T02:30:16.489Z,101299.00
2023-04-25T02:32:43.525Z,101294.00
2023-04-25T02:35:11.011Z,101302.00
2023-04-25T02:37:39.600Z,101302.00
2023-04-25T02:40:07.768Z,101303.00
2023-04-25T02:42:34.805Z,101307.00
2023-04-25T02:45:01.644Z,101309.00
2023-04-25T02:47:28.419Z,101303.00
2023-04-25T02:49:55.334Z,101302.00
2023-04-25T02:52:22.270Z,101304.00
2023-04-25T02:54:48.971Z,101304.00
2023-04-25T02:57:15.955Z,101307.00
2023-04-25T02:59:42.761Z,101313.00
2023-04-25T03:02:09.555Z,101319.00
2023-04-25T03:04:36.419Z,101320.00
2023-04-25T03:07:03.493Z,101325.00
2023-04-25T03:09:30.155Z,101322.00
2023-04-25T03:11:56.794Z,101330.00
2023-04-25T03:14:23.470Z,101330.00
2023-04-25T03:16:50.167Z,101328.00
2023-04-25T03:19:19.902Z,101327.00
2023-04-25T03:21:46.580Z,101335.00
2023-04-25T03:24:13.508Z,101339.00
2023-04-25T03:26:40.156Z,101346.00
2023-04-25T03:29:06.844Z,101338.00
2023-04-25T03:31:33.575Z,101345.00
2023-04-25T03:34:00.267Z,101349.00
2023-04-25T03:36:27.116Z,101356.00
2023-04-25T03:38:53.774Z,101341.00
2023-04-25T03:41:21.197Z,101342.00
2023-04-25T03:43:48.073Z,101340.00
2023-04-25T03:46:15.089Z,101333.00
2023-04-25T03:48:42.322Z,101325.00
2023-04-25T03:51:09.040Z,101335.00
2023-04-25T03:53:35.723Z,101325.00
2023-04-25T03:56:02.306Z,101326.00
2023-04-25T03:58:28.922Z,101341.00
2023-04-25T04:00:55.549Z,101342.00
2023-04-25T04:03:22.702Z,101346.00
2023-04-25T04:05:49.933Z,101342.00
2023-04-25T04:08:16.639Z,101337.00
2023-04-25T04:10:43.402Z,101337.00
2023-04-25T04:13:10.074Z,101344.00
2023-04-25T04:15:38.040Z,101351.00
2023-04-25T04:18:05.215Z,101350.00
2023-04-25T04:20:31.877Z,101356.00
2023-04-25T04:22:58.734Z,101355.00
2023-04-25T04:25:25.672Z,101346.00
2023-04-25T04:27:55.943Z,101348.00
2023-04-25T04:30:26.537Z,101365.00
2023-04-25T04:32:53.458Z,101364.00
2023-04-25T04:35:20.376Z,101349.00
2023-04-25T04:37:47.732Z,101349.00
2023-04-25T04:40:16.763Z,101362.00
2023-04-25T04:42:44.385Z,101358.00
2023-04-25T04:45:11.374Z,101367.00
2023-04-25T04:47:38.752Z,101368.00
2023-04-25T04:50:05.700Z,101362.00
2023-04-25T04:52:32.342Z,101366.00
2023-04-25T04:54:59.084Z,101366.00
2023-04-25T04:57:26.056Z,101367.00
2023-04-25T04:59:52.854Z,101379.00
2023-04-25T05:02:19.489Z,101384.00
2023-04-25T05:04:46.235Z,101385.00
2023-04-25T05:07:13.014Z,101384.00
2023-04-25T05:09:39.886Z,101385.00
2023-04-25T05:12:06.833Z,101397.00
2023-04-25T05:14:33.541Z,101409.00
2023-04-25T05:17:00.646Z,101410.00
2023-04-25T05:19:27.596Z,101408.00
2023-04-25T05:21:54.499Z,101403.00
2023-04-25T05:24:21.145Z,101408.00
2023-04-25T05:26:47.807Z,101427.00
2023-04-25T05:29:14.357Z,101422.00
2023-04-25T05:31:41.134Z,101428.00
2023-04-25T05:34:07.789Z,101427.00
2023-04-25T05:36:34.613Z,101438.00
2023-04-25T05:39:01.196Z,101437.00
2023-04-25T05:41:27.943Z,101441.00
2023-04-25T05:43:57.157Z,101442.00
2023-04-25T05:46:24.743Z,101445.00
2023-04-25T05:48:51.420Z,101446.00
2023-04-25T05:51:19.685Z,101453.00
2023-04-25T05:53:46.441Z,101456.00
2023-04-25T05:56:13.176Z,101457.00
2023-04-25T05:58:39.931Z,101461.00
2023-04-25T06:01:06.668Z,101468.00
2023-04-25T06:03:33.482Z,101478.00
2023-04-25T06:06:00.266Z,101479.00
2023-04-25T06:08:26.968Z,101471.00
2023-04-25T06:10:53.715Z,101471.00
2023-04-25T06:13:20.341Z,101479.00
2023-04-25T06:15:47.108Z,101478.00
2023-04-25T06:18:13.849Z,101483.00
2023-04-25T06:20:40.831Z,101483.00
2023-04-25T06:23:07.709Z,101480.00
2023-04-25T06:25:34.751Z,101493.00
2023-04-25T06:28:01.459Z,101481.00
2023-04-25T06:30:28.305Z,101494.00
2023-04-25T06:32:55.154Z,101495.00
2023-04-25T06:35:22.388Z,101503.00
2023-04-25T06:37:49.166Z,101506.00
2023-04-25T06:40:16.144Z,101508.00
2023-04-25T06:42:42.910Z,101515.00
2023-04-25T06:45:09.992Z,101519.00
2023-04-25T06:47:36.823Z,101529.00
2023-04-25T06:50:03.825Z,101529.00
2023-04-25T06:52:30.745Z,101528.00
2023-04-25T06:54:57.433Z,101536.00
2023-04-25T06:57:24.549Z,101530.00
2023-04-25T06:59:51.202Z,101529.00
2023-04-25T07:02:17.916Z,101534.00
2023-04-25T07:04:44.687Z,101542.00
2023-04-25T07:07:11.533Z,101538.00
2023-04-25T07:09:38.309Z,101540.00
2023-04-25T07:12:05.445Z,101540.00
2023-04-25T07:14:32.192Z,101561.00
2023-04-25T07:16:59.367Z,101560.00
2023-04-25T07:19:27.950Z,101557.00
2023-04-25T07:21:54.768Z,101564.00
2023-04-25T07:24:21.407Z,101558.00
2023-04-25T07:26:48.164Z,101571.00
2023-04-25T07:29:14.827Z,101568.00
2023-04-25T07:31:41.481Z,101568.00
2023-04-25T07:34:08.556Z,101565.00
2023-04-25T07:36:35.314Z,101559.00
2023-04-25T07:39:02.058Z,101567.00
2023-04-25T07:41:28.831Z,101579.00
2023-04-25T07:43:55.460Z,101569.00
2023-04-25T07:46:22.260Z,101582.00
2023-04-25T07:48:49.343Z,101585.00
2023-04-25T07:51:16.302Z,101580.00
2023-04-25T07:53:43.296Z,101590.00
2023-04-25T07:56:10.251Z,101598.00
2023-04-25T07:58:37.246Z,101596.00
2023-04-25T08:01:04.136Z,101617.00
2023-04-25T08:03:31.137Z,101614.00
2023-04-25T08:05:58.195Z,101616.00
2023-04-25T08:08:25.154Z,101618.00
2023-04-25T08:10:51.862Z,101624.00
2023-04-25T08:13:18.553Z,101625.00
2023-04-25T08:15:45.421Z,101628.00
2023-04-25T08:18:12.233Z,101641.00
2023-04-25T08:20:38.931Z,101642.00
2023-04-25T08:23:05.718Z,101641.00
2023-04-25T08:25:32.455Z,101640.00
2023-04-25T08:28:00.673Z,101653.00
2023-04-25T08:30:28.198Z,101641.00
2023-04-25T08:32:55.131Z,101656.00
2023-04-25T08:35:22.099Z,101650.00
2023-04-25T08:37:50.256Z,101654.00
2023-04-25T08:40:17.259Z,101666.00
2023-04-25T08:42:44.070Z,101660.00
2023-04-25T08:45:11.504Z,101664.00
2023-04-25T08:47:39.682Z,101661.00
2023-04-25T08:50:07.757Z,101654.00
2023-04-25T08:52:48.042Z,101663.00
2023-04-25T08:55:15.477Z,101676.00
2023-04-25T08:57:46.501Z,101682.00
2023-04-25T09:00:14.286Z,101683.00
2023-04-25T09:02:43.276Z,101687.00
2023-04-25T09:05:13.516Z,101688.00
2023-04-25T09:07:40.199Z,101686.00
2023-04-25T09:10:07.208Z,101682.00
2023-04-25T09:12:33.870Z,101686.00
2023-04-25T09:15:10.815Z,101692.00
2023-04-25T09:17:41.649Z,101706.00
2023-04-25T09:20:10.377Z,101723.00
2023-04-25T09:22:38.550Z,101725.00
2023-04-25T09:25:12.918Z,101731.00
2023-04-25T09:27:53.290Z,101733.00
2023-04-25T09:30:29.338Z,101730.00
2023-04-25T09:32:59.366Z,101726.00
2023-04-25T09:35:29.671Z,101730.00
2023-04-25T09:37:56.827Z,101735.00
2023-04-25T09:40:23.600Z,101729.00
2023-04-25T09:42:50.357Z,101746.00
2023-04-25T09:45:17.082Z,101736.00
2023-04-25T09:47:45.130Z,101742.00
2023-04-25T09:50:17.180Z,101736.00
2023-04-25T09:52:44.528Z,101752.00
2023-04-25T09:55:11.284Z,101743.00
2023-04-25T09:57:41.394Z,101745.00
2023-04-25T10:00:13.094Z,101749.00
2023-04-25T10:02:40.372Z,101746.00
2023-04-25T10:05:09.545Z,101744.00
2023-04-25T10:07:39.212Z,101750.00
2023-04-25T10:10:07.173Z,101745.00
2023-04-25T10:12:35.331Z,101751.00
2023-04-25T10:15:03.891Z,101757.00
2023-04-25T10:17:31.240Z,101759.00
2023-04-25T10:19:58.882Z,101760.00
2023-04-25T10:22:38.329Z,101768.00
2023-04-25T10:25:05.955Z,101754.00
2023-04-25T10:27:33.320Z,101767.00
2023-04-25T10:30:10.467Z,101775.00
2023-04-25T10:32:37.201Z,101768.00
2023-04-25T10:35:18.420Z,101785.00
2023-04-25T10:38:05.868Z,101790.00
2023-04-25T10:40:36.038Z,101786.00
2023-04-25T10:43:40.952Z,101786.00
2023-04-25T10:46:19.098Z,101792.00
2023-04-25T10:48:59.914Z,101798.00
2023-04-25T10:51:34.590Z,101804.00
2023-04-25T10:54:09.909Z,101805.00
2023-04-25T10:56:45.360Z,101812.00
2023-04-25T10:59:14.011Z,101802.00
2023-04-25T11:01:48.341Z,101817.00
2023-04-25T11:04:32.087Z,101814.00
2023-04-25T11:07:24.022Z,101811.00
2023-04-25T11:09:51.121Z,101814.00
2023-04-25T11:12:18.766Z,101821.00
2023-04-25T11:14:45.628Z,101817.00
2023-04-25T11:17:12.791Z,101824.00
2023-04-25T11:19:39.651Z,101824.00
2023-04-25T11:22:07.284Z,101825.00
2023-04-25T11:24:35.996Z,101828.00
2023-04-25T11:27:05.074Z,101830.00
2023-04-25T11:29:33.236Z,101825.00
2023-04-25T11:32:01.506Z,101831.00
2023-04-25T11:34:31.774Z,101834.00
2023-04-25T11:36:58.700Z,101841.00
2023-04-25T11:39:26.271Z,101843.00
2023-04-25T11:41:53.776Z,101843.00
2023-04-25T11:44:21.174Z,101844.00
2023-04-25T11:46:50.848Z,101836.00
2023-04-25T11:49:19.471Z,101842.00
2023-04-25T11:51:49.015Z,101840.00
2023-04-25T11:54:16.787Z,101836.00
2023-04-25T11:56:45.252Z,101839.00
2023-04-25T11:59:13.141Z,101833.00
2023-04-25T12:01:42.319Z,101839.00
2023-04-25T12:04:27.507Z,101834.00
2023-04-25T12:06:56.409Z,101832.00
2023-04-25T12:09:32.052Z,101835.00
2023-04-25T12:12:00.383Z,101831.00
2023-04-25T12:14:29.953Z,101823.00
2023-04-25T12:16:59.040Z,101828.00
2023-04-25T12:19:27.083Z,101830.00
2023-04-25T12:21:58.776Z,101833.00
2023-04-25T12:24:28.348Z,101834.00
2023-04-25T12:27:06.591Z,101843.00
2023-04-25T12:29:47.862Z,101844.00
2023-04-25T12:32:16.943Z,101844.00
2023-04-25T12:34:43.856Z,101849.00
2023-04-25T12:37:10.679Z,101847.00
2023-04-25T12:39:37.598Z,101854.00
2023-04-25T12:42:05.710Z,101842.00
2023-04-25T12:44:35.231Z,101847.00
2023-04-25T12:47:02.328Z,101852.00
2023-04-25T12:49:29.271Z,101848.00
2023-04-25T12:51:56.196Z,101851.00
2023-04-25T12:54:22.972Z,101870.00
2023-04-25T12:56:49.726Z,101864.00
2023-04-25T12:59:16.500Z,101869.00
2023-04-25T13:01:44.102Z,101870.00
2023-04-25T13:04:11.002Z,101874.00
2023-04-25T13:06:37.922Z,101857.00
2023-04-25T13:09:04.728Z,101863.00
2023-04-25T13:11:31.870Z,101851.00
2023-04-25T13:13:58.765Z,101844.00
2023-04-25T13:16:25.634Z,101849.00
2023-04-25T13:18:52.348Z,101840.00
2023-04-25T13:21:19.048Z,101834.00
2023-04-25T13:23:47.748Z,101846.00
2023-04-25T13:26:14.729Z,101852.00
2023-04-25T13:28:43.593Z,101859.00
2023-04-25T13:31:11.663Z,101852.00
2023-04-25T13:33:38.394Z,101859.00
2023-04-25T13:36:05.255Z,101854.00
2023-04-25T13:38:32.092Z,101841.00
2023-04-25T13:40:59.099Z,101847.00
2023-04-25T13:43:26.101Z,101855.00
2023-04-25T13:45:53.057Z,101850.00
2023-04-25T13:48:21.368Z,101853.00
2023-04-25T13:51:22.817Z,101852.00
2023-04-25T13:53:50.046Z,101864.00
2023-04-25T13:56:16.929Z,101861.00
2023-04-25T13:58:43.573Z,101865.00
2023-04-25T14:01:10.256Z,101873.00
2023-04-25T14:03:37.057Z,101883.00
2023-04-25T14:06:03.988Z,101872.00
2023-04-25T14:08:30.761Z,101878.00
2023-04-25T14:10:57.360Z,101885.00
2023-04-25T14:13:24.515Z,101882.00
2023-04-25T14:15:51.973Z,101879.00
2023-04-25T14:18:19.209Z,101865.00
2023-04-25T14:20:46.482Z,101889.00
2023-04-25T14:23:13.171Z,101889.00
2023-04-25T14:25:39.867Z,101893.00
2023-04-25T14:28:07.371Z,101899.00
2023-04-25T14:30:34.275Z,101894.00
2023-04-25T14:33:01.277Z,101898.00
2023-04-25T14:35:28.031Z,101896.00
2023-04-25T14:37:55.330Z,101900.00
2023-04-25T14:40:24.055Z,101897.00
2023-04-25T14:42:52.205Z,101906.00
2023-04-25T14:45:19.220Z,101902.00
2023-04-25T14:47:46.231Z,101904.00
2023-04-25T14:50:13.423Z,101909.00
2023-04-25T14:52:40.087Z,101907.00
2023-04-25T14:55:07.034Z,101908.00
2023-04-25T14:57:34.389Z,101919.00
2023-04-25T15:00:02.066Z,101911.00
2023-04-25T15:02:29.703Z,101917.00
2023-04-25T15:04:57.175Z,101918.00
2023-04-25T15:07:24.137Z,101920.00
2023-04-25T15:09:51.040Z,101919.00
2023-04-25T15:12:17.694Z,101923.00
2023-04-25T15:14:44.422Z,101923.00
2023-04-25T15:17:11.764Z,101918.00
2023-04-25T15:19:40.721Z,101929.00
2023-04-25T15:22:08.059Z,101923.00
2023-04-25T15:24:35.347Z,101922.00
2023-04-25T15:27:04.540Z,101931.00
2023-04-25T15:29:32.062Z,101929.00
2023-04-25T15:31:59.938Z,101926.00
2023-04-25T15:34:26.877Z,101930.00
2023-04-25T15:36:53.938Z,101938.00
2023-04-25T15:39:20.821Z,101925.00
2023-04-25T15:41:48.526Z,101929.00
2023-04-25T15:44:15.411Z,101930.00
2023-04-25T15:46:42.248Z,101935.00
2023-04-25T15:49:08.980Z,101930.00
2023-04-25T15:51:35.918Z,101925.00
2023-04-25T15:54:02.770Z,101934.00
2023-04-25T15:56:29.768Z,101929.00
2023-04-25T15:58:56.450Z,101935.00
2023-04-25T16:01:24.764Z,101930.00
2023-04-25T16:03:53.382Z,101932.00
2023-04-25T16:06:20.350Z,101930.00
2023-04-25T16:08:47.052Z,101938.00
2023-04-25T16:11:14.857Z,101935.00
2023-04-25T16:13:42.027Z,101931.00
2023-04-25T16:16:08.930Z,101943.00
2023-04-25T16:18:36.173Z,101944.00
2023-04-25T16:21:03.818Z,101944.00
2023-04-25T16:23:31.406Z,101946.00
2023-04-25T16:25:58.125Z,101940.00
2023-04-25T16:28:25.107Z,101948.00
2023-04-25T16:30:51.765Z,101935.00
2023-04-25T16:33:18.498Z,101946.00
2023-04-25T16:35:45.301Z,101942.00
2023-04-25T16:38:12.121Z,101944.00
2023-04-25T16:40:39.016Z,101948.00
2023-04-25T16:43:05.725Z,101947.00
2023-04-25T16:45:32.450Z,101944.00
2023-04-25T16:47:59.083Z,101961.00
2023-04-25T16:50:27.329Z,101950.00
2023-04-25T16:52:54.715Z,101945.00
2023-04-25T16:55:21.655Z,101952.00
2023-04-25T16:57:48.481Z,101949.00
2023-04-25T17:00:15.943Z,101951.00
2023-04-25T17:02:42.841Z,101951.00
2023-04-25T17:05:10.563Z,101950.00
2023-04-25T17:07:37.537Z,101949.00
2023-04-25T17:10:04.771Z,101946.00
2023-04-25T17:12:31.809Z,101948.00
2023-04-25T17:15:00.270Z,101944.00
2023-04-25T17:17:27.322Z,101952.00
2023-04-25T17:19:54.064Z,101946.00
2023-04-25T17:22:21.591Z,101947.00
2023-04-25T17:24:48.324Z,101957.00
2023-04-25T17:27:15.163Z,101960.00
2023-04-25T17:29:41.894Z,101953.00
2023-04-25T17:32:08.888Z,101957.00
2023-04-25T17:34:37.878Z,101955.00
2023-04-25T17:37:04.591Z,101953.00
2023-04-25T17:39:31.282Z,101954.00
2023-04-25T17:42:00.270Z,101954.00
2023-04-25T17:44:27.648Z,101951.00
2023-04-25T17:46:54.374Z,101957.00
2023-04-25T17:49:21.010Z,101958.00
2023-04-25T17:51:47.703Z,101955.00
2023-04-25T17:54:14.727Z,101959.00
2023-04-25T17:56:42.872Z,101956.00
2023-04-25T17:59:09.869Z,101964.00
2023-04-25T18:01:36.612Z,101968.00
2023-04-25T18:04:04.350Z,101959.00
2023-04-25T18:06:32.960Z,101956.00
2023-04-25T18:08:59.707Z,101960.00
2023-04-25T18:11:26.403Z,101967.00
2023-04-25T18:13:53.208Z,101963.00
2023-04-25T18:16:20.207Z,101952.00
2023-04-25T18:18:53.276Z,101964.00
2023-04-25T18:21:23.316Z,101961.00
2023-04-25T18:23:50.057Z,101964.00
2023-04-25T18:26:16.788Z,101964.00
2023-04-25T18:28:44.144Z,101968.00
2023-04-25T18:31:11.912Z,101970.00
2023-04-25T18:33:38.735Z,101970.00
2023-04-25T18:36:05.919Z,101972.00
2023-04-25T18:38:35.863Z,101977.00
2023-04-25T18:41:23.998Z,101974.00
2023-04-25T18:43:51.782Z,101975.00
2023-04-25T18:46:22.544Z,101984.00
2023-04-25T18:48:50.580Z,101980.00
2023-04-25T18:51:17.483Z,101982.00
2023-04-25T18:53:44.315Z,101984.00
2023-04-25T18:56:11.126Z,101989.00
2023-04-25T18:58:37.775Z,101991.00
2023-04-25T19:01:05.296Z,101989.00
2023-04-25T19:03:33.501Z,101984.00
2023-04-25T19:06:00.600Z,101988.00
2023-04-25T19:08:27.622Z,101989.00
2023-04-25T19:10:54.736Z,101987.00
2023-04-25T19:13:21.930Z,101991.00
2023-04-25T19:15:48.878Z,101990.00
2023-04-25T19:18:15.787Z,101995.00
2023-04-25T19:20:42.822Z,101998.00
2023-04-25T19:23:10.523Z,101999.00
2023-04-25T19:25:37.196Z,102003.00
2023-04-25T19:28:04.144Z,102002.00
2023-04-25T19:30:31.726Z,102000.00
2023-04-25T19:32:58.573Z,102007.00
2023-04-25T19:35:30.726Z,102005.00
2023-04-25T19:37:57.800Z,101995.00
2023-04-25T19:40:25.964Z,102004.00
2023-04-25T19:42:52.674Z,101996.00
2023-04-25T19:45:19.453Z,102002.00
2023-04-25T19:47:46.148Z,102005.00
2023-04-25T19:50:13.170Z,102007.00
2023-04-25T19:52:39.926Z,102017.00
2023-04-25T19:55:07.209Z,102011.00
2023-04-25T19:57:39.054Z,102014.00
2023-04-25T20:00:13.200Z,102017.00
2023-04-25T20:02:40.939Z,102016.00
2023-04-25T20:05:09.171Z,102015.00
2023-04-25T20:07:35.980Z,102013.00
2023-04-25T20:10:04.011Z,102025.00
2023-04-25T20:12:30.681Z,102018.00
2023-04-25T20:14:58.672Z,102015.00
2023-04-25T20:17:26.151Z,102013.00
2023-04-25T20:19:52.999Z,102018.00
2023-04-25T20:22:19.686Z,102022.00
2023-04-25T20:24:46.640Z,102014.00
2023-04-25T20:27:13.328Z,102012.00
2023-04-25T20:29:40.123Z,102004.00
2023-04-25T20:32:07.371Z,102015.00
2023-04-25T20:34:34.228Z,102003.00
2023-04-25T20:37:02.892Z,102011.00
2023-04-25T20:39:30.051Z,102008.00
2023-04-25T20:41:57.192Z,102004.00
2023-04-25T20:44:25.394Z,102003.00
2023-04-25T20:46:52.191Z,102005.00
2023-04-25T20:49:19.266Z,102011.00
2023-04-25T20:51:46.503Z,102002.00
2023-04-25T20:54:13.602Z,102004.00
2023-04-25T20:56:40.437Z,102001.00
2023-04-25T20:59:07.387Z,102007.00
2023-04-25T21:01:34.912Z,102022.00
2023-04-25T21:04:01.949Z,102006.00
2023-04-25T21:06:29.910Z,102020.00
2023-04-25T21:08:56.596Z,102017.00
2023-04-25T21:11:23.694Z,102017.00
2023-04-25T21:13:50.943Z,102012.00
2023-04-25T21:16:17.694Z,102014.00
2023-04-25T21:18:44.593Z,102013.00
2023-04-25T21:21:11.460Z,102029.00
2023-04-25T21:23:38.150Z,102023.00
2023-04-25T21:26:05.010Z,102030.00
2023-04-25T21:28:32.293Z,102031.00
2023-04-25T21:30:59.406Z,102024.00
2023-04-25T21:33:26.256Z,102030.00
2023-04-25T21:35:52.929Z,102029.00
2023-04-25T21:38:19.516Z,102025.00
2023-04-25T21:40:46.192Z,102023.00
2023-04-25T21:43:13.201Z,102028.00
2023-04-25T21:45:56.934Z,102027.00
2023-04-25T21:48:26.821Z,102021.00
2023-04-25T21:50:53.578Z,102031.00
2023-04-25T21:53:20.232Z,102032.00
2023-04-25T21:55:46.945Z,102027.00
2023-04-25T21:58:13.714Z,102025.00
2023-04-25T22:00:43.023Z,102025.00
2023-04-25T22:03:09.905Z,102020.00
2023-04-25T22:05:37.613Z,102018.00
2023-04-25T22:08:04.644Z,102022.00
2023-04-25T22:10:31.500Z,102024.00
2023-04-25T22:12:58.648Z,102027.00
2023-04-25T22:15:25.619Z,102032.00
2023-04-25T22:17:55.258Z,102023.00
2023-04-25T22:20:26.346Z,102034.00
2023-04-25T22:22:54.757Z,102037.00
2023-04-25T22:25:22.116Z,102034.00
2023-04-25T22:27:49.450Z,102035.00
2023-04-25T22:30:16.254Z,102041.00
2023-04-25T22:32:43.562Z,102029.00
2023-04-25T22:35:10.834Z,102038.00
2023-04-25T22:37:37.804Z,102036.00
2023-04-25T22:40:09.282Z,102031.00
2023-04-25T22:42:40.576Z,102035.00
2023-04-25T22:45:08.383Z,102034.00
2023-04-25T22:47:39.018Z,102033.00
2023-04-25T22:50:12.709Z,102036.00
2023-04-25T22:52:39.613Z,102037.00
2023-04-25T22:55:06.851Z,102031.00
2023-04-25T22:57:33.652Z,102029.00
2023-04-25T23:00:00.282Z,102035.00
2023-04-25T23:02:27.537Z,102035.00
2023-04-25T23:04:55.088Z,102034.00
2023-04-25T23:07:21.801Z,102036.00
2023-04-25T23:09:48.407Z,102043.00
2023-04-25T23:12:18.848Z,102041.00
2023-04-25T23:14:49.700Z,102037.00
2023-04-25T23:17:16.461Z,102035.00
2023-04-25T23:19:43.282Z,102032.00
2023-04-25T23:22:10.253Z,102031.00
2023-04-25T23:24:40.645Z,102025.00
2023-04-25T23:27:07.840Z,102028.00
2023-04-25T23:29:35.063Z,102023.00
2023-04-25T23:32:02.230Z,102024.00
2023-04-25T23:34:32.687Z,102033.00
2023-04-25T23:37:01.386Z,102033.00
2023-04-25T23:39:28.425Z,102028.00
2023-04-25T23:41:55.274Z,102035.00
2023-04-25T23:44:22.617Z,102034.00
2023-04-25T23:46:50.180Z,102033.00
2023-04-25T23:49:16.931Z,102043.00
2023-04-25T23:51:43.819Z,102035.00
2023-04-25T23:54:10.450Z,102038.00
2023-04-25T23:56:37.100Z,102042.00
2023-04-25T23:59:04.215Z,102042.00
